sensor_id;sensor_type;location;lat;lon;timestamp;P1;durP1;ratioP1;P2;durP2;ratioP2
12768;SDS011;6448;48.916;8.990;2023-05-07T00:01:03;1.52;;;1.40;;
12768;SDS011;6448;48.916;8.990;2023-05-07T00:02:06;1.70;;;1.60;;
12768;SDS011;6448;48.916;8.990;2023-05-07T00:03:08;1.63;;;1.52;;
12768;SDS011;6448;48.916;8.990;2023-05-07T00:04:11;1.80;;;1.70;;
12768;SDS011;6448;48.916;8.990;2023-05-07T00:05:13;1.70;;;1.60;;
12768;SDS011;6448;48.916;8.990;2023-05-07T00:06:15;1.70;;;1.60;;
12768;SDS011;6448;48.916;8.990;2023-05-07T00:07:16;1.70;;;1.60;;
12768;SDS011;6448;48.916;8.990;2023-05-07T00:09:41;1.70;;;1.60;;
12768;SDS011;6448;48.916;8.990;2023-05-07T00:10:42;1.60;;;1.50;;
12768;SDS011;6448;48.916;8.990;2023-05-07T00:11:44;1.83;;;1.60;;
12768;SDS011;6448;48.916;8.990;2023-05-07T00:12:44;2.08;;;1.80;;
12768;SDS011;6448;48.916;8.990;2023-05-07T00:13:47;1.70;;;1.60;;
12768;SDS011;6448;48.916;8.990;2023-05-07T00:14:48;1.60;;;1.50;;
12768;SDS011;6448;48.916;8.990;2023-05-07T00:15:50;1.60;;;1.50;;
12768;SDS011;6448;48.916;8.990;2023-05-07T00:16:50;1.70;;;1.60;;
12768;SDS011;6448;48.916;8.990;2023-05-07T00:17:53;1.85;;;1.65;;
12768;SDS011;6448;48.916;8.990;2023-05-07T00:18:56;1.70;;;1.60;;
12768;SDS011;6448;48.916;8.990;2023-05-07T00:19:58;1.90;;;1.75;;
12768;SDS011;6448;48.916;8.990;2023-05-07T00:20:59;1.63;;;1.52;;
12768;SDS011;6448;48.916;8.990;2023-05-07T00:22:01;1.70;;;1.60;;
12768;SDS011;6448;48.916;8.990;2023-05-07T00:23:02;1.65;;;1.55;;
12768;SDS011;6448;48.916;8.990;2023-05-07T00:24:04;1.60;;;1.50;;
12768;SDS011;6448;48.916;8.990;2023-05-07T00:25:05;1.60;;;1.50;;
12768;SDS011;6448;48.916;8.990;2023-05-07T00:26:28;1.60;;;1.47;;
12768;SDS011;6448;48.916;8.990;2023-05-07T00:27:50;2.30;;;1.77;;
12768;SDS011;6448;48.916;8.990;2023-05-07T00:28:52;1.70;;;1.60;;
12768;SDS011;6448;48.916;8.990;2023-05-07T00:29:53;1.60;;;1.50;;
12768;SDS011;6448;48.916;8.990;2023-05-07T00:30:55;1.70;;;1.60;;
12768;SDS011;6448;48.916;8.990;2023-05-07T00:31:56;1.80;;;1.70;;
12768;SDS011;6448;48.916;8.990;2023-05-07T00:32:58;1.80;;;1.70;;
12768;SDS011;6448;48.916;8.990;2023-05-07T00:34:00;1.88;;;1.77;;
12768;SDS011;6448;48.916;8.990;2023-05-07T00:35:01;2.22;;;2.03;;
12768;SDS011;6448;48.916;8.990;2023-05-07T00:36:03;2.00;;;1.90;;
12768;SDS011;6448;48.916;8.990;2023-05-07T00:37:05;2.40;;;2.20;;
12768;SDS011;6448;48.916;8.990;2023-05-07T00:39:46;1.98;;;1.88;;
12768;SDS011;6448;48.916;8.990;2023-05-07T00:40:48;2.80;;;1.90;;
12768;SDS011;6448;48.916;8.990;2023-05-07T00:41:49;1.90;;;1.80;;
12768;SDS011;6448;48.916;8.990;2023-05-07T00:42:51;2.00;;;1.80;;
12768;SDS011;6448;48.916;8.990;2023-05-07T00:43:53;2.00;;;1.90;;
12768;SDS011;6448;48.916;8.990;2023-05-07T00:44:54;2.00;;;1.90;;
12768;SDS011;6448;48.916;8.990;2023-05-07T00:45:55;2.33;;;2.13;;
12768;SDS011;6448;48.916;8.990;2023-05-07T00:46:57;1.83;;;1.67;;
12768;SDS011;6448;48.916;8.990;2023-05-07T00:47:59;1.77;;;1.67;;
12768;SDS011;6448;48.916;8.990;2023-05-07T00:49:03;1.83;;;1.73;;
12768;SDS011;6448;48.916;8.990;2023-05-07T00:50:05;1.80;;;1.70;;
12768;SDS011;6448;48.916;8.990;2023-05-07T00:51:09;1.90;;;1.80;;
12768;SDS011;6448;48.916;8.990;2023-05-07T00:52:11;1.80;;;1.70;;
12768;SDS011;6448;48.916;8.990;2023-05-07T00:53:15;1.85;;;1.75;;
12768;SDS011;6448;48.916;8.990;2023-05-07T00:54:16;1.70;;;1.60;;
12768;SDS011;6448;48.916;8.990;2023-05-07T00:55:19;1.70;;;1.60;;
12768;SDS011;6448;48.916;8.990;2023-05-07T00:56:21;1.70;;;1.60;;
12768;SDS011;6448;48.916;8.990;2023-05-07T00:57:23;1.98;;;1.88;;
12768;SDS011;6448;48.916;8.990;2023-05-07T00:58:25;1.80;;;1.70;;
12768;SDS011;6448;48.916;8.990;2023-05-07T00:59:27;1.60;;;1.50;;
12768;SDS011;6448;48.916;8.990;2023-05-07T01:00:28;1.65;;;1.55;;
12768;SDS011;6448;48.916;8.990;2023-05-07T01:01:30;1.80;;;1.70;;
12768;SDS011;6448;48.916;8.990;2023-05-07T01:02:31;1.80;;;1.70;;
12768;SDS011;6448;48.916;8.990;2023-05-07T01:03:33;2.38;;;1.80;;
12768;SDS011;6448;48.916;8.990;2023-05-07T01:04:35;1.88;;;1.77;;
12768;SDS011;6448;48.916;8.990;2023-05-07T01:05:37;2.00;;;1.80;;
12768;SDS011;6448;48.916;8.990;2023-05-07T01:06:38;1.90;;;1.70;;
12768;SDS011;6448;48.916;8.990;2023-05-07T01:07:41;1.73;;;1.63;;
12768;SDS011;6448;48.916;8.990;2023-05-07T01:08:42;1.70;;;1.60;;
12768;SDS011;6448;48.916;8.990;2023-05-07T01:09:45;1.65;;;1.55;;
12768;SDS011;6448;48.916;8.990;2023-05-07T01:10:47;1.60;;;1.50;;
12768;SDS011;6448;48.916;8.990;2023-05-07T01:11:50;1.70;;;1.60;;
12768;SDS011;6448;48.916;8.990;2023-05-07T01:12:51;1.70;;;1.60;;
12768;SDS011;6448;48.916;8.990;2023-05-07T01:13:55;1.70;;;1.60;;
12768;SDS011;6448;48.916;8.990;2023-05-07T01:14:56;1.80;;;1.70;;
12768;SDS011;6448;48.916;8.990;2023-05-07T01:15:59;1.70;;;1.60;;
12768;SDS011;6448;48.916;8.990;2023-05-07T01:17:00;1.95;;;1.75;;
12768;SDS011;6448;48.916;8.990;2023-05-07T01:18:11;1.98;;;1.88;;
12768;SDS011;6448;48.916;8.990;2023-05-07T01:19:12;1.70;;;1.60;;
12768;SDS011;6448;48.916;8.990;2023-05-07T01:20:18;1.90;;;1.80;;
12768;SDS011;6448;48.916;8.990;2023-05-07T01:21:21;1.80;;;1.70;;
12768;SDS011;6448;48.916;8.990;2023-05-07T01:22:32;1.70;;;1.60;;
12768;SDS011;6448;48.916;8.990;2023-05-07T01:23:34;1.88;;;1.77;;
12768;SDS011;6448;48.916;8.990;2023-05-07T01:24:37;2.28;;;2.08;;
12768;SDS011;6448;48.916;8.990;2023-05-07T01:25:38;1.70;;;1.60;;
12768;SDS011;6448;48.916;8.990;2023-05-07T01:26:42;2.10;;;1.90;;
12768;SDS011;6448;48.916;8.990;2023-05-07T01:27:49;1.92;;;1.83;;
12768;SDS011;6448;48.916;8.990;2023-05-07T01:29:11;1.83;;;1.73;;
12768;SDS011;6448;48.916;8.990;2023-05-07T01:30:12;1.80;;;1.70;;
12768;SDS011;6448;48.916;8.990;2023-05-07T01:31:14;1.80;;;1.70;;
12768;SDS011;6448;48.916;8.990;2023-05-07T01:32:17;1.90;;;1.80;;
12768;SDS011;6448;48.916;8.990;2023-05-07T01:33:22;1.70;;;1.60;;
12768;SDS011;6448;48.916;8.990;2023-05-07T01:34:25;1.70;;;1.60;;
12768;SDS011;6448;48.916;8.990;2023-05-07T01:35:30;1.85;;;1.75;;
12768;SDS011;6448;48.916;8.990;2023-05-07T01:36:36;1.83;;;1.73;;
12768;SDS011;6448;48.916;8.990;2023-05-07T01:37:41;1.92;;;1.83;;
12768;SDS011;6448;48.916;8.990;2023-05-07T01:38:42;1.83;;;1.73;;
12768;SDS011;6448;48.916;8.990;2023-05-07T01:39:44;1.90;;;1.80;;
12768;SDS011;6448;48.916;8.990;2023-05-07T01:40:46;1.80;;;1.70;;
12768;SDS011;6448;48.916;8.990;2023-05-07T01:41:48;1.90;;;1.70;;
12768;SDS011;6448;48.916;8.990;2023-05-07T01:42:50;1.98;;;1.88;;
12768;SDS011;6448;48.916;8.990;2023-05-07T01:43:52;1.80;;;1.70;;
12768;SDS011;6448;48.916;8.990;2023-05-07T01:44:53;2.00;;;1.90;;
12768;SDS011;6448;48.916;8.990;2023-05-07T01:45:55;2.20;;;2.00;;
12768;SDS011;6448;48.916;8.990;2023-05-07T01:46:57;1.80;;;1.70;;
12768;SDS011;6448;48.916;8.990;2023-05-07T01:48:00;1.95;;;1.75;;
12768;SDS011;6448;48.916;8.990;2023-05-07T01:49:01;1.77;;;1.67;;
12768;SDS011;6448;48.916;8.990;2023-05-07T01:50:05;1.70;;;1.60;;
12768;SDS011;6448;48.916;8.990;2023-05-07T01:51:08;2.30;;;1.92;;
12768;SDS011;6448;48.916;8.990;2023-05-07T01:52:10;2.15;;;1.95;;
12768;SDS011;6448;48.916;8.990;2023-05-07T01:53:12;2.25;;;2.03;;
12768;SDS011;6448;48.916;8.990;2023-05-07T01:54:15;2.38;;;2.17;;
12768;SDS011;6448;48.916;8.990;2023-05-07T01:55:16;2.10;;;1.98;;
12768;SDS011;6448;48.916;8.990;2023-05-07T01:56:18;2.30;;;2.10;;
12768;SDS011;6448;48.916;8.990;2023-05-07T01:57:21;2.17;;;2.00;;
12768;SDS011;6448;48.916;8.990;2023-05-07T01:58:22;2.20;;;2.00;;
12768;SDS011;6448;48.916;8.990;2023-05-07T01:59:23;1.92;;;1.80;;
12768;SDS011;6448;48.916;8.990;2023-05-07T02:00:25;2.05;;;1.85;;
12768;SDS011;6448;48.916;8.990;2023-05-07T02:01:26;2.15;;;2.05;;
12768;SDS011;6448;48.916;8.990;2023-05-07T02:02:29;2.00;;;1.90;;
12768;SDS011;6448;48.916;8.990;2023-05-07T02:03:32;2.30;;;2.10;;
12768;SDS011;6448;48.916;8.990;2023-05-07T02:04:41;2.28;;;2.08;;
12768;SDS011;6448;48.916;8.990;2023-05-07T02:05:42;1.95;;;1.85;;
12768;SDS011;6448;48.916;8.990;2023-05-07T02:06:54;1.98;;;1.88;;
12768;SDS011;6448;48.916;8.990;2023-05-07T02:07:55;2.00;;;1.80;;
12768;SDS011;6448;48.916;8.990;2023-05-07T02:09:00;2.20;;;2.00;;
12768;SDS011;6448;48.916;8.990;2023-05-07T02:10:02;2.20;;;2.00;;
12768;SDS011;6448;48.916;8.990;2023-05-07T02:11:04;1.95;;;1.85;;
12768;SDS011;6448;48.916;8.990;2023-05-07T02:12:04;2.70;;;2.08;;
12768;SDS011;6448;48.916;8.990;2023-05-07T02:13:06;2.10;;;2.00;;
12768;SDS011;6448;48.916;8.990;2023-05-07T02:14:07;2.30;;;2.10;;
12768;SDS011;6448;48.916;8.990;2023-05-07T02:15:10;2.05;;;1.95;;
12768;SDS011;6448;48.916;8.990;2023-05-07T02:16:11;2.30;;;2.10;;
12768;SDS011;6448;48.916;8.990;2023-05-07T02:17:14;2.47;;;2.28;;
12768;SDS011;6448;48.916;8.990;2023-05-07T02:18:15;2.40;;;2.20;;
12768;SDS011;6448;48.916;8.990;2023-05-07T02:19:17;2.50;;;2.30;;
12768;SDS011;6448;48.916;8.990;2023-05-07T02:20:21;2.30;;;2.10;;
12768;SDS011;6448;48.916;8.990;2023-05-07T02:21:22;2.30;;;2.10;;
12768;SDS011;6448;48.916;8.990;2023-05-07T02:22:28;2.20;;;2.00;;
12768;SDS011;6448;48.916;8.990;2023-05-07T02:23:30;2.30;;;2.10;;
12768;SDS011;6448;48.916;8.990;2023-05-07T02:24:32;2.17;;;1.98;;
12768;SDS011;6448;48.916;8.990;2023-05-07T02:25:34;1.98;;;1.88;;
12768;SDS011;6448;48.916;8.990;2023-05-07T02:26:35;1.90;;;1.73;;
12768;SDS011;6448;48.916;8.990;2023-05-07T02:27:37;2.00;;;1.90;;
12768;SDS011;6448;48.916;8.990;2023-05-07T02:28:38;2.10;;;1.90;;
12768;SDS011;6448;48.916;8.990;2023-05-07T02:29:40;2.17;;;1.98;;
12768;SDS011;6448;48.916;8.990;2023-05-07T02:30:41;2.08;;;1.92;;
12768;SDS011;6448;48.916;8.990;2023-05-07T02:31:43;2.22;;;2.03;;
12768;SDS011;6448;48.916;8.990;2023-05-07T02:32:44;1.90;;;1.80;;
12768;SDS011;6448;48.916;8.990;2023-05-07T02:33:46;2.10;;;1.80;;
12768;SDS011;6448;48.916;8.990;2023-05-07T02:34:49;1.80;;;1.70;;
12768;SDS011;6448;48.916;8.990;2023-05-07T02:35:52;2.10;;;1.90;;
12768;SDS011;6448;48.916;8.990;2023-05-07T02:36:54;1.88;;;1.77;;
12768;SDS011;6448;48.916;8.990;2023-05-07T02:37:58;2.00;;;1.80;;
12768;SDS011;6448;48.916;8.990;2023-05-07T02:38:59;1.77;;;1.67;;
12768;SDS011;6448;48.916;8.990;2023-05-07T02:40:04;1.67;;;1.58;;
12768;SDS011;6448;48.916;8.990;2023-05-07T02:41:06;2.03;;;1.88;;
12768;SDS011;6448;48.916;8.990;2023-05-07T02:42:07;1.88;;;1.77;;
12768;SDS011;6448;48.916;8.990;2023-05-07T02:43:10;1.60;;;1.50;;
12768;SDS011;6448;48.916;8.990;2023-05-07T02:44:15;1.80;;;1.70;;
12768;SDS011;6448;48.916;8.990;2023-05-07T02:45:17;1.60;;;1.50;;
12768;SDS011;6448;48.916;8.990;2023-05-07T02:46:20;1.83;;;1.70;;
12768;SDS011;6448;48.916;8.990;2023-05-07T02:47:28;2.13;;;1.70;;
12768;SDS011;6448;48.916;8.990;2023-05-07T02:48:29;1.70;;;1.60;;
12768;SDS011;6448;48.916;8.990;2023-05-07T02:49:30;1.90;;;1.70;;
12768;SDS011;6448;48.916;8.990;2023-05-07T02:50:32;1.60;;;1.50;;
12768;SDS011;6448;48.916;8.990;2023-05-07T02:51:33;1.70;;;1.60;;
12768;SDS011;6448;48.916;8.990;2023-05-07T02:52:37;1.90;;;1.80;;
12768;SDS011;6448;48.916;8.990;2023-05-07T02:53:39;1.80;;;1.70;;
12768;SDS011;6448;48.916;8.990;2023-05-07T02:54:40;3.47;;;2.08;;
12768;SDS011;6448;48.916;8.990;2023-05-07T02:55:43;1.90;;;1.80;;
12768;SDS011;6448;48.916;8.990;2023-05-07T02:56:44;1.80;;;1.70;;
12768;SDS011;6448;48.916;8.990;2023-05-07T02:57:45;1.98;;;1.80;;
12768;SDS011;6448;48.916;8.990;2023-05-07T02:58:47;2.00;;;1.75;;
12768;SDS011;6448;48.916;8.990;2023-05-07T02:59:50;1.90;;;1.80;;
12768;SDS011;6448;48.916;8.990;2023-05-07T03:00:53;2.00;;;1.90;;
12768;SDS011;6448;48.916;8.990;2023-05-07T03:02:03;2.00;;;1.90;;
12768;SDS011;6448;48.916;8.990;2023-05-07T03:03:04;2.10;;;1.90;;
12768;SDS011;6448;48.916;8.990;2023-05-07T03:04:06;2.00;;;1.90;;
12768;SDS011;6448;48.916;8.990;2023-05-07T03:05:07;1.80;;;1.70;;
12768;SDS011;6448;48.916;8.990;2023-05-07T03:06:09;1.90;;;1.80;;
12768;SDS011;6448;48.916;8.990;2023-05-07T03:07:10;1.70;;;1.60;;
12768;SDS011;6448;48.916;8.990;2023-05-07T03:08:12;1.85;;;1.70;;
12768;SDS011;6448;48.916;8.990;2023-05-07T03:09:13;1.70;;;1.60;;
12768;SDS011;6448;48.916;8.990;2023-05-07T03:10:15;1.95;;;1.60;;
12768;SDS011;6448;48.916;8.990;2023-05-07T03:11:17;1.90;;;1.70;;
12768;SDS011;6448;48.916;8.990;2023-05-07T03:12:19;1.63;;;1.52;;
12768;SDS011;6448;48.916;8.990;2023-05-07T03:13:20;1.70;;;1.60;;
12768;SDS011;6448;48.916;8.990;2023-05-07T03:14:22;1.70;;;1.60;;
12768;SDS011;6448;48.916;8.990;2023-05-07T03:15:23;1.70;;;1.60;;
12768;SDS011;6448;48.916;8.990;2023-05-07T03:16:26;1.90;;;1.80;;
12768;SDS011;6448;48.916;8.990;2023-05-07T03:17:26;2.00;;;1.90;;
12768;SDS011;6448;48.916;8.990;2023-05-07T03:18:28;2.22;;;2.05;;
12768;SDS011;6448;48.916;8.990;2023-05-07T03:19:29;2.15;;;1.95;;
12768;SDS011;6448;48.916;8.990;2023-05-07T03:20:31;1.90;;;1.80;;
12768;SDS011;6448;48.916;8.990;2023-05-07T03:21:33;1.90;;;1.80;;
12768;SDS011;6448;48.916;8.990;2023-05-07T03:22:35;1.83;;;1.73;;
12768;SDS011;6448;48.916;8.990;2023-05-07T03:23:36;2.00;;;1.90;;
12768;SDS011;6448;48.916;8.990;2023-05-07T03:24:37;1.88;;;1.70;;
12768;SDS011;6448;48.916;8.990;2023-05-07T03:25:38;2.10;;;1.90;;
12768;SDS011;6448;48.916;8.990;2023-05-07T03:26:41;1.80;;;1.70;;
12768;SDS011;6448;48.916;8.990;2023-05-07T03:27:42;1.60;;;1.50;;
12768;SDS011;6448;48.916;8.990;2023-05-07T03:28:44;1.70;;;1.60;;
12768;SDS011;6448;48.916;8.990;2023-05-07T03:29:47;1.70;;;1.60;;
12768;SDS011;6448;48.916;8.990;2023-05-07T03:30:50;2.45;;;1.60;;
12768;SDS011;6448;48.916;8.990;2023-05-07T03:31:50;1.80;;;1.70;;
12768;SDS011;6448;48.916;8.990;2023-05-07T03:32:52;2.03;;;1.90;;
12768;SDS011;6448;48.916;8.990;2023-05-07T03:33:53;2.30;;;1.70;;
12768;SDS011;6448;48.916;8.990;2023-05-07T03:34:57;1.80;;;1.70;;
12768;SDS011;6448;48.916;8.990;2023-05-07T03:35:58;1.85;;;1.75;;
12768;SDS011;6448;48.916;8.990;2023-05-07T03:37:01;1.85;;;1.75;;
12768;SDS011;6448;48.916;8.990;2023-05-07T03:38:03;1.80;;;1.70;;
12768;SDS011;6448;48.916;8.990;2023-05-07T03:39:07;1.80;;;1.70;;
12768;SDS011;6448;48.916;8.990;2023-05-07T03:40:13;1.70;;;1.60;;
12768;SDS011;6448;48.916;8.990;2023-05-07T03:41:24;2.10;;;1.90;;
12768;SDS011;6448;48.916;8.990;2023-05-07T03:42:27;1.98;;;1.88;;
12768;SDS011;6448;48.916;8.990;2023-05-07T03:43:29;2.47;;;2.10;;
12768;SDS011;6448;48.916;8.990;2023-05-07T03:44:37;2.30;;;2.10;;
12768;SDS011;6448;48.916;8.990;2023-05-07T03:45:38;2.38;;;2.17;;
12768;SDS011;6448;48.916;8.990;2023-05-07T03:46:44;2.28;;;2.08;;
12768;SDS011;6448;48.916;8.990;2023-05-07T03:47:46;2.30;;;2.10;;
12768;SDS011;6448;48.916;8.990;2023-05-07T03:48:51;2.30;;;2.10;;
12768;SDS011;6448;48.916;8.990;2023-05-07T03:49:53;2.30;;;2.10;;
12768;SDS011;6448;48.916;8.990;2023-05-07T03:50:57;2.10;;;2.00;;
12768;SDS011;6448;48.916;8.990;2023-05-07T03:52:02;2.00;;;1.90;;
12768;SDS011;6448;48.916;8.990;2023-05-07T03:53:05;2.00;;;1.90;;
12768;SDS011;6448;48.916;8.990;2023-05-07T03:54:11;1.90;;;1.80;;
12768;SDS011;6448;48.916;8.990;2023-05-07T03:55:17;1.92;;;1.83;;
12768;SDS011;6448;48.916;8.990;2023-05-07T03:56:23;2.20;;;2.10;;
12768;SDS011;6448;48.916;8.990;2023-05-07T03:57:29;2.33;;;2.13;;
12768;SDS011;6448;48.916;8.990;2023-05-07T03:58:32;2.20;;;2.10;;
12768;SDS011;6448;48.916;8.990;2023-05-07T03:59:39;2.40;;;2.20;;
12768;SDS011;6448;48.916;8.990;2023-05-07T04:00:42;2.50;;;2.28;;
12768;SDS011;6448;48.916;8.990;2023-05-07T04:01:54;2.30;;;2.10;;
12768;SDS011;6448;48.916;8.990;2023-05-07T04:02:57;2.60;;;2.40;;
12768;SDS011;6448;48.916;8.990;2023-05-07T04:04:02;2.50;;;2.30;;
12768;SDS011;6448;48.916;8.990;2023-05-07T04:05:03;2.13;;;2.03;;
12768;SDS011;6448;48.916;8.990;2023-05-07T04:06:05;2.20;;;2.10;;
12768;SDS011;6448;48.916;8.990;2023-05-07T04:07:08;2.20;;;2.10;;
12768;SDS011;6448;48.916;8.990;2023-05-07T04:08:14;2.20;;;2.05;;
12768;SDS011;6448;48.916;8.990;2023-05-07T04:09:20;2.25;;;2.15;;
12768;SDS011;6448;48.916;8.990;2023-05-07T04:10:22;2.10;;;2.00;;
12768;SDS011;6448;48.916;8.990;2023-05-07T04:11:26;2.05;;;1.95;;
12768;SDS011;6448;48.916;8.990;2023-05-07T04:12:29;2.10;;;1.90;;
12768;SDS011;6448;48.916;8.990;2023-05-07T04:13:30;1.88;;;1.77;;
12768;SDS011;6448;48.916;8.990;2023-05-07T04:14:34;1.98;;;1.88;;
12768;SDS011;6448;48.916;8.990;2023-05-07T04:15:36;1.85;;;1.75;;
12768;SDS011;6448;48.916;8.990;2023-05-07T04:16:41;2.17;;;1.98;;
12768;SDS011;6448;48.916;8.990;2023-05-07T04:17:42;2.13;;;1.92;;
12768;SDS011;6448;48.916;8.990;2023-05-07T04:18:46;2.13;;;2.03;;
12768;SDS011;6448;48.916;8.990;2023-05-07T04:19:47;2.20;;;2.00;;
12768;SDS011;6448;48.916;8.990;2023-05-07T04:20:49;2.08;;;1.98;;
12768;SDS011;6448;48.916;8.990;2023-05-07T04:21:50;2.20;;;2.00;;
12768;SDS011;6448;48.916;8.990;2023-05-07T04:22:52;1.93;;;1.83;;
12768;SDS011;6448;48.916;8.990;2023-05-07T04:23:53;2.20;;;2.00;;
12768;SDS011;6448;48.916;8.990;2023-05-07T04:24:55;2.10;;;2.00;;
12768;SDS011;6448;48.916;8.990;2023-05-07T04:25:56;2.10;;;2.00;;
12768;SDS011;6448;48.916;8.990;2023-05-07T04:27:04;1.90;;;1.80;;
12768;SDS011;6448;48.916;8.990;2023-05-07T04:28:07;2.00;;;1.90;;
12768;SDS011;6448;48.916;8.990;2023-05-07T04:29:10;1.90;;;1.80;;
12768;SDS011;6448;48.916;8.990;2023-05-07T04:30:12;1.90;;;1.80;;
12768;SDS011;6448;48.916;8.990;2023-05-07T04:31:16;2.05;;;1.90;;
12768;SDS011;6448;48.916;8.990;2023-05-07T04:32:21;1.95;;;1.80;;
12768;SDS011;6448;48.916;8.990;2023-05-07T04:33:25;1.90;;;1.80;;
12768;SDS011;6448;48.916;8.990;2023-05-07T04:34:27;2.08;;;1.98;;
12768;SDS011;6448;48.916;8.990;2023-05-07T04:35:28;1.95;;;1.85;;
12768;SDS011;6448;48.916;8.990;2023-05-07T04:36:30;1.90;;;1.80;;
12768;SDS011;6448;48.916;8.990;2023-05-07T04:37:37;1.70;;;1.60;;
12768;SDS011;6448;48.916;8.990;2023-05-07T04:38:39;1.80;;;1.70;;
12768;SDS011;6448;48.916;8.990;2023-05-07T04:39:41;1.95;;;1.85;;
12768;SDS011;6448;48.916;8.990;2023-05-07T04:40:42;1.90;;;1.80;;
12768;SDS011;6448;48.916;8.990;2023-05-07T04:41:47;1.95;;;1.80;;
12768;SDS011;6448;48.916;8.990;2023-05-07T04:42:48;1.70;;;1.60;;
12768;SDS011;6448;48.916;8.990;2023-05-07T04:43:51;2.00;;;1.90;;
12768;SDS011;6448;48.916;8.990;2023-05-07T04:44:54;2.00;;;1.90;;
12768;SDS011;6448;48.916;8.990;2023-05-07T04:45:57;2.00;;;1.90;;
12768;SDS011;6448;48.916;8.990;2023-05-07T04:47:00;2.27;;;2.00;;
12768;SDS011;6448;48.916;8.990;2023-05-07T04:48:03;2.00;;;1.80;;
12768;SDS011;6448;48.916;8.990;2023-05-07T04:49:05;2.13;;;2.03;;
12768;SDS011;6448;48.916;8.990;2023-05-07T04:50:08;2.03;;;1.92;;
12768;SDS011;6448;48.916;8.990;2023-05-07T04:51:10;1.80;;;1.70;;
12768;SDS011;6448;48.916;8.990;2023-05-07T04:52:12;2.00;;;1.80;;
12768;SDS011;6448;48.916;8.990;2023-05-07T04:53:12;1.75;;;1.63;;
12768;SDS011;6448;48.916;8.990;2023-05-07T04:54:14;1.73;;;1.63;;
12768;SDS011;6448;48.916;8.990;2023-05-07T04:55:15;1.85;;;1.75;;
12768;SDS011;6448;48.916;8.990;2023-05-07T04:56:17;1.60;;;1.50;;
12768;SDS011;6448;48.916;8.990;2023-05-07T04:57:20;2.08;;;1.77;;
12768;SDS011;6448;48.916;8.990;2023-05-07T04:58:22;1.90;;;1.80;;
12768;SDS011;6448;48.916;8.990;2023-05-07T04:59:24;2.00;;;1.80;;
12768;SDS011;6448;48.916;8.990;2023-05-07T05:01:50;2.22;;;2.03;;
12768;SDS011;6448;48.916;8.990;2023-05-07T05:02:52;1.77;;;1.65;;
12768;SDS011;6448;48.916;8.990;2023-05-07T05:03:55;2.00;;;1.90;;
12768;SDS011;6448;48.916;8.990;2023-05-07T05:04:57;2.10;;;1.90;;
12768;SDS011;6448;48.916;8.990;2023-05-07T05:05:59;2.10;;;1.90;;
12768;SDS011;6448;48.916;8.990;2023-05-07T05:07:03;1.90;;;1.80;;
12768;SDS011;6448;48.916;8.990;2023-05-07T05:08:04;2.05;;;1.85;;
12768;SDS011;6448;48.916;8.990;2023-05-07T05:09:09;1.90;;;1.75;;
12768;SDS011;6448;48.916;8.990;2023-05-07T05:10:11;1.90;;;1.80;;
12768;SDS011;6448;48.916;8.990;2023-05-07T05:11:15;2.13;;;1.92;;
12768;SDS011;6448;48.916;8.990;2023-05-07T05:12:16;1.75;;;1.65;;
12768;SDS011;6448;48.916;8.990;2023-05-07T05:13:18;2.00;;;1.90;;
12768;SDS011;6448;48.916;8.990;2023-05-07T05:14:20;2.13;;;1.90;;
12768;SDS011;6448;48.916;8.990;2023-05-07T05:15:23;1.80;;;1.70;;
12768;SDS011;6448;48.916;8.990;2023-05-07T05:16:24;1.80;;;1.70;;
12768;SDS011;6448;48.916;8.990;2023-05-07T05:17:27;1.88;;;1.77;;
12768;SDS011;6448;48.916;8.990;2023-05-07T05:18:27;1.90;;;1.80;;
12768;SDS011;6448;48.916;8.990;2023-05-07T05:19:29;2.15;;;2.05;;
12768;SDS011;6448;48.916;8.990;2023-05-07T05:20:30;2.13;;;1.92;;
12768;SDS011;6448;48.916;8.990;2023-05-07T05:21:32;2.00;;;1.90;;
12768;SDS011;6448;48.916;8.990;2023-05-07T05:22:40;2.00;;;1.90;;
12768;SDS011;6448;48.916;8.990;2023-05-07T05:23:42;2.15;;;1.95;;
12768;SDS011;6448;48.916;8.990;2023-05-07T05:24:43;1.83;;;1.73;;
12768;SDS011;6448;48.916;8.990;2023-05-07T05:25:46;2.22;;;2.03;;
12768;SDS011;6448;48.916;8.990;2023-05-07T05:26:48;2.10;;;1.90;;
12768;SDS011;6448;48.916;8.990;2023-05-07T05:28:16;2.40;;;2.05;;
12768;SDS011;6448;48.916;8.990;2023-05-07T05:29:18;1.90;;;1.80;;
12768;SDS011;6448;48.916;8.990;2023-05-07T05:30:19;1.75;;;1.65;;
12768;SDS011;6448;48.916;8.990;2023-05-07T05:31:23;1.80;;;1.70;;
12768;SDS011;6448;48.916;8.990;2023-05-07T05:32:25;1.83;;;1.73;;
12768;SDS011;6448;48.916;8.990;2023-05-07T05:33:29;1.90;;;1.80;;
12768;SDS011;6448;48.916;8.990;2023-05-07T05:34:35;1.90;;;1.80;;
12768;SDS011;6448;48.916;8.990;2023-05-07T05:35:40;1.90;;;1.80;;
12768;SDS011;6448;48.916;8.990;2023-05-07T05:36:45;2.00;;;1.90;;
12768;SDS011;6448;48.916;8.990;2023-05-07T05:37:48;2.20;;;1.90;;
12768;SDS011;6448;48.916;8.990;2023-05-07T05:38:50;1.95;;;1.70;;
12768;SDS011;6448;48.916;8.990;2023-05-07T05:39:58;2.10;;;1.90;;
12768;SDS011;6448;48.916;8.990;2023-05-07T05:41:09;2.03;;;1.92;;
12768;SDS011;6448;48.916;8.990;2023-05-07T05:42:11;2.10;;;1.90;;
12768;SDS011;6448;48.916;8.990;2023-05-07T05:43:13;2.35;;;2.15;;
12768;SDS011;6448;48.916;8.990;2023-05-07T05:44:15;2.30;;;2.10;;
12768;SDS011;6448;48.916;8.990;2023-05-07T05:45:16;2.50;;;2.30;;
12768;SDS011;6448;48.916;8.990;2023-05-07T05:46:19;2.40;;;2.20;;
12768;SDS011;6448;48.916;8.990;2023-05-07T05:47:23;2.20;;;2.10;;
12768;SDS011;6448;48.916;8.990;2023-05-07T05:48:28;2.33;;;2.20;;
12768;SDS011;6448;48.916;8.990;2023-05-07T05:49:29;2.30;;;2.10;;
12768;SDS011;6448;48.916;8.990;2023-05-07T05:50:32;2.33;;;2.13;;
12768;SDS011;6448;48.916;8.990;2023-05-07T05:51:49;2.45;;;2.25;;
12768;SDS011;6448;48.916;8.990;2023-05-07T05:52:51;2.35;;;2.15;;
12768;SDS011;6448;48.916;8.990;2023-05-07T05:53:53;2.33;;;2.13;;
12768;SDS011;6448;48.916;8.990;2023-05-07T05:54:55;3.58;;;2.40;;
12768;SDS011;6448;48.916;8.990;2023-05-07T05:55:57;2.30;;;2.10;;
12768;SDS011;6448;48.916;8.990;2023-05-07T05:56:59;2.40;;;2.20;;
12768;SDS011;6448;48.916;8.990;2023-05-07T05:57:59;2.60;;;2.40;;
12768;SDS011;6448;48.916;8.990;2023-05-07T05:59:06;2.40;;;2.20;;
12768;SDS011;6448;48.916;8.990;2023-05-07T06:00:08;2.40;;;2.20;;
12768;SDS011;6448;48.916;8.990;2023-05-07T06:01:18;2.97;;;2.30;;
12768;SDS011;6448;48.916;8.990;2023-05-07T06:02:22;2.55;;;2.35;;
12768;SDS011;6448;48.916;8.990;2023-05-07T06:03:24;2.70;;;2.50;;
12768;SDS011;6448;48.916;8.990;2023-05-07T06:04:26;2.75;;;2.55;;
12768;SDS011;6448;48.916;8.990;2023-05-07T06:05:28;2.47;;;2.28;;
12768;SDS011;6448;48.916;8.990;2023-05-07T06:06:31;2.60;;;2.40;;
12768;SDS011;6448;48.916;8.990;2023-05-07T06:07:33;2.83;;;2.63;;
12768;SDS011;6448;48.916;8.990;2023-05-07T06:08:34;2.80;;;2.60;;
12768;SDS011;6448;48.916;8.990;2023-05-07T06:09:37;2.90;;;2.70;;
12768;SDS011;6448;48.916;8.990;2023-05-07T06:10:38;3.10;;;2.90;;
12768;SDS011;6448;48.916;8.990;2023-05-07T06:11:42;2.90;;;2.60;;
12768;SDS011;6448;48.916;8.990;2023-05-07T06:12:44;2.70;;;2.50;;
12768;SDS011;6448;48.916;8.990;2023-05-07T06:13:47;2.95;;;2.75;;
12768;SDS011;6448;48.916;8.990;2023-05-07T06:14:47;2.80;;;2.60;;
12768;SDS011;6448;48.916;8.990;2023-05-07T06:15:50;3.30;;;3.00;;
12768;SDS011;6448;48.916;8.990;2023-05-07T06:16:51;2.80;;;2.60;;
12768;SDS011;6448;48.916;8.990;2023-05-07T06:17:54;2.80;;;2.60;;
12768;SDS011;6448;48.916;8.990;2023-05-07T06:18:57;2.75;;;2.55;;
12768;SDS011;6448;48.916;8.990;2023-05-07T06:19:59;2.80;;;2.60;;
12768;SDS011;6448;48.916;8.990;2023-05-07T06:20:59;2.78;;;2.58;;
12768;SDS011;6448;48.916;8.990;2023-05-07T06:22:06;2.80;;;2.60;;
12768;SDS011;6448;48.916;8.990;2023-05-07T06:23:08;2.75;;;2.55;;
12768;SDS011;6448;48.916;8.990;2023-05-07T06:24:10;2.50;;;2.30;;
12768;SDS011;6448;48.916;8.990;2023-05-07T06:25:12;2.90;;;2.70;;
12768;SDS011;6448;48.916;8.990;2023-05-07T06:26:16;3.00;;;2.70;;
12768;SDS011;6448;48.916;8.990;2023-05-07T06:27:20;2.85;;;2.65;;
12768;SDS011;6448;48.916;8.990;2023-05-07T06:28:22;2.95;;;2.75;;
12768;SDS011;6448;48.916;8.990;2023-05-07T06:29:24;2.90;;;2.67;;